createdAt,value
2019-04-29T00:01:46.903Z,37.58
2019-04-29T00:04:13.807Z,37.07
2019-04-29T00:06:41.772Z,37.66
2019-04-29T00:09:10.732Z,38.01
2019-04-29T00:11:37.761Z,37.88
2019-04-29T00:14:04.331Z,38.67
2019-04-29T00:16:31.195Z,38.59
2019-04-29T00:18:57.915Z,38.82
2019-04-29T00:21:25.437Z,38.42
2019-04-29T00:24:03.677Z,37.89
2019-04-29T00:26:23.948Z,38.19
2019-04-29T00:28:50.598Z,38.33
2019-04-29T00:31:19.470Z,38.44
2019-04-29T00:33:46.964Z,38.48
2019-04-29T00:36:15.330Z,38.48
2019-04-29T00:38:42.190Z,37.69
2019-04-29T00:41:09.001Z,38.46
2019-04-29T00:43:36.198Z,38.40
2019-04-29T00:46:03.279Z,37.90
2019-04-29T00:48:30.216Z,37.99
2019-04-29T00:50:56.842Z,38.33
2019-04-29T00:53:23.722Z,38.40
2019-04-29T00:55:50.762Z,38.12
2019-04-29T00:58:17.420Z,37.74
2019-04-29T01:00:44.048Z,38.05
2019-04-29T01:03:10.813Z,37.97
2019-04-29T01:05:37.510Z,37.92
2019-04-29T01:08:04.259Z,37.61
2019-04-29T01:10:31.088Z,38.06
2019-04-29T01:13:02.327Z,38.34
2019-04-29T01:15:29.248Z,37.48
2019-04-29T01:17:55.832Z,37.74
2019-04-29T01:20:22.410Z,37.80
2019-04-29T01:22:49.367Z,38.23
2019-04-29T01:25:16.001Z,38.21
2019-04-29T01:27:42.987Z,38.06
2019-04-29T01:30:09.943Z,37.99
2019-04-29T01:32:36.805Z,38.44
2019-04-29T01:35:04.828Z,39.03
2019-04-29T01:37:31.528Z,38.73
2019-04-29T01:39:58.246Z,38.38
2019-04-29T01:42:24.832Z,38.93
2019-04-29T01:44:51.834Z,39.14
2019-04-29T01:47:18.429Z,39.08
2019-04-29T01:49:45.011Z,38.96
2019-04-29T01:52:11.666Z,39.17
2019-04-29T01:54:38.291Z,39.33
2019-04-29T01:57:04.909Z,39.44
2019-04-29T01:59:31.637Z,39.17
2019-04-29T02:01:58.244Z,39.34
2019-04-29T02:04:24.834Z,39.07
2019-04-29T02:06:51.448Z,39.37
2019-04-29T02:09:18.329Z,39.60
2019-04-29T02:11:45.185Z,39.89
2019-04-29T02:14:11.822Z,39.64
2019-04-29T02:16:38.409Z,40.42
2019-04-29T02:19:05.354Z,40.98
2019-04-29T02:21:32.791Z,40.45
2019-04-29T02:23:59.544Z,40.61
2019-04-29T02:26:26.459Z,40.69
2019-04-29T02:28:53.577Z,39.83
2019-04-29T02:31:20.415Z,39.76
2019-04-29T02:33:47.054Z,39.61
2019-04-29T02:36:13.918Z,39.81
2019-04-29T02:38:40.505Z,40.44
2019-04-29T02:41:07.485Z,40.46
2019-04-29T02:43:37.204Z,40.40
2019-04-29T02:46:07.949Z,40.83
2019-04-29T02:48:37.999Z,40.89
2019-04-29T02:51:05.006Z,41.47
2019-04-29T02:53:35.227Z,41.70
2019-04-29T02:56:04.660Z,41.71
2019-04-29T02:58:33.751Z,42.04
2019-04-29T03:01:03.511Z,41.49
2019-04-29T03:03:35.886Z,41.34
2019-04-29T03:06:02.406Z,42.21
2019-04-29T03:08:29.005Z,42.44
2019-04-29T03:10:55.586Z,42.79
2019-04-29T03:13:22.472Z,42.71
2019-04-29T03:15:49.062Z,42.88
2019-04-29T03:18:15.674Z,43.52
2019-04-29T03:20:42.327Z,43.61
2019-04-29T03:23:11.523Z,43.53
2019-04-29T03:25:41.477Z,43.77
2019-04-29T03:28:10.540Z,43.19
2019-04-29T03:30:39.482Z,42.94
2019-04-29T03:33:08.199Z,42.93
2019-04-29T03:35:35.948Z,43.30
2019-04-29T03:38:06.686Z,44.15
2019-04-29T03:40:33.239Z,43.88
2019-04-29T03:43:03.799Z,43.86
2019-04-29T03:45:31.411Z,44.22
2019-04-29T03:47:59.144Z,43.92
2019-04-29T03:50:28.600Z,43.48
2019-04-29T03:52:59.111Z,43.87
2019-04-29T03:55:38.981Z,44.21
2019-04-29T03:57:59.767Z,44.53
2019-04-29T04:00:31.988Z,44.92
2019-04-29T04:02:58.914Z,44.98
2019-04-29T04:05:28.070Z,45.18
2019-04-29T04:07:57.667Z,45.49
2019-04-29T04:10:26.321Z,44.92
2019-04-29T04:12:52.977Z,45.29
2019-04-29T04:15:21.982Z,45.41
2019-04-29T04:17:50.296Z,45.42
2019-04-29T04:20:17.180Z,45.65
2019-04-29T04:22:43.791Z,45.69
2019-04-29T04:25:10.520Z,45.74
2019-04-29T04:27:41.422Z,45.91
2019-04-29T04:30:10.648Z,45.76
2019-04-29T04:32:37.243Z,45.74
2019-04-29T04:35:04.138Z,45.82
2019-04-29T04:37:34.391Z,45.43
2019-04-29T04:40:01.330Z,46.01
2019-04-29T04:42:30.015Z,46.03
2019-04-29T04:44:57.374Z,45.13
2019-04-29T04:47:24.308Z,45.01
2019-04-29T04:49:50.917Z,45.34
2019-04-29T04:52:17.497Z,45.16
2019-04-29T04:54:44.349Z,45.57
2019-04-29T04:57:11.034Z,45.55
2019-04-29T04:59:37.632Z,45.47
2019-04-29T05:02:04.263Z,45.19
2019-04-29T05:04:30.902Z,45.49
2019-04-29T05:06:58.161Z,45.45
2019-04-29T05:09:24.786Z,45.28
2019-04-29T05:11:51.414Z,44.07
2019-04-29T05:14:18.302Z,43.72
2019-04-29T05:16:45.114Z,44.33
2019-04-29T05:19:11.957Z,44.08
2019-04-29T05:21:38.571Z,43.58
2019-04-29T05:24:05.532Z,44.63
2019-04-29T05:26:32.224Z,44.50
2019-04-29T05:28:59.532Z,44.80
2019-04-29T05:31:26.074Z,44.23
2019-04-29T05:33:52.898Z,44.24
2019-04-29T05:36:19.490Z,43.28
2019-04-29T05:38:46.088Z,44.27
2019-04-29T05:41:12.700Z,42.42
2019-04-29T05:43:39.296Z,41.80
2019-04-29T05:46:07.545Z,41.25
2019-04-29T05:48:34.625Z,41.71
2019-04-29T05:51:01.458Z,42.16
2019-04-29T05:53:28.057Z,42.08
2019-04-29T05:55:54.827Z,42.75
2019-04-29T05:58:21.696Z,39.95
2019-04-29T06:00:48.277Z,39.98
2019-04-29T06:03:15.378Z,39.73
2019-04-29T06:05:41.957Z,39.69
2019-04-29T06:08:08.876Z,40.76
2019-04-29T06:10:36.395Z,39.94
2019-04-29T06:13:02.977Z,40.31
2019-04-29T06:15:29.572Z,40.18
2019-04-29T06:17:56.184Z,40.24
2019-04-29T06:20:23.073Z,39.49
2019-04-29T06:22:49.667Z,39.33
2019-04-29T06:25:16.529Z,40.04
2019-04-29T06:27:43.120Z,39.07
2019-04-29T06:30:09.783Z,39.61
2019-04-29T06:32:36.452Z,39.31
2019-04-29T06:35:03.362Z,38.69
2019-04-29T06:37:30.130Z,39.12
2019-04-29T06:39:59.938Z,39.01
2019-04-29T06:42:33.278Z,38.62
2019-04-29T06:45:01.534Z,39.35
2019-04-29T06:47:31.231Z,39.34
2019-04-29T06:50:00.094Z,37.86
2019-04-29T06:52:30.087Z,38.39
2019-04-29T06:54:58.589Z,37.45
2019-04-29T06:57:27.551Z,37.84
2019-04-29T06:59:54.850Z,37.36
2019-04-29T07:02:25.339Z,37.51
2019-04-29T07:04:54.869Z,38.33
2019-04-29T07:07:21.945Z,37.74
2019-04-29T07:09:56.698Z,37.67
2019-04-29T07:12:26.692Z,37.25
2019-04-29T07:14:59.797Z,38.63
2019-04-29T07:17:28.526Z,37.50
2019-04-29T07:19:57.633Z,36.49
2019-04-29T07:22:31.493Z,37.43
2019-04-29T07:25:00.910Z,37.71
2019-04-29T07:27:28.384Z,36.80
2019-04-29T07:29:55.240Z,37.54
2019-04-29T07:32:21.877Z,36.72
2019-04-29T07:34:51.837Z,36.30
2019-04-29T07:37:20.715Z,36.80
2019-04-29T07:39:51.025Z,36.58
2019-04-29T07:42:20.149Z,36.98
2019-04-29T07:44:48.948Z,37.73
2019-04-29T07:47:25.000Z,36.62
2019-04-29T07:49:51.396Z,37.00
2019-04-29T07:52:21.930Z,36.73
2019-04-29T07:54:55.185Z,37.46
2019-04-29T07:57:28.461Z,37.46
2019-04-29T08:02:45.390Z,37.91
2019-04-29T08:05:15.544Z,38.30
2019-04-29T08:07:45.779Z,38.88
2019-04-29T08:10:28.618Z,38.37
2019-04-29T08:13:01.861Z,38.12
2019-04-29T08:15:36.641Z,38.60
2019-04-29T08:29:01.610Z,38.64
2019-04-29T08:31:32.700Z,39.08
2019-04-29T08:33:59.385Z,38.64
2019-04-29T08:36:28.405Z,39.00
2019-04-29T08:41:29.844Z,39.13
2019-04-29T08:44:14.728Z,38.26
2019-04-29T08:46:27.757Z,38.39
2019-04-29T08:48:55.241Z,39.06
2019-04-29T08:51:22.611Z,38.99
2019-04-29T08:53:55.654Z,38.52
2019-04-29T08:56:29.005Z,39.13
2019-04-29T08:58:55.499Z,39.45
2019-04-29T09:01:33.869Z,40.02
2019-04-29T09:04:05.860Z,40.38
2019-04-29T09:06:38.370Z,43.04
2019-04-29T09:09:10.585Z,42.53
2019-04-29T09:11:37.370Z,42.43
2019-04-29T09:14:05.917Z,42.11
2019-04-29T09:16:35.036Z,41.73
2019-04-29T09:19:05.379Z,39.79
2019-04-29T09:21:36.570Z,38.92
2019-04-29T09:24:06.092Z,39.52
2019-04-29T09:26:37.423Z,39.98
2019-04-29T09:29:10.934Z,40.58
2019-04-29T09:31:39.064Z,39.99
2019-04-29T09:34:26.518Z,39.67
2019-04-29T09:36:56.725Z,40.41
2019-04-29T09:39:25.783Z,39.38
2019-04-29T09:41:55.865Z,38.44
2019-04-29T09:44:24.657Z,39.24
2019-04-29T09:46:54.089Z,37.63
2019-04-29T09:49:22.132Z,37.39
2019-04-29T09:51:51.688Z,38.84
2019-04-29T09:54:19.704Z,37.14
2019-04-29T09:56:48.485Z,38.78
2019-04-29T09:59:21.641Z,38.35
2019-04-29T10:01:54.604Z,37.48
2019-04-29T10:04:28.447Z,37.21
2019-04-29T10:06:57.743Z,38.28
2019-04-29T10:09:26.085Z,37.21
2019-04-29T10:11:54.121Z,36.02
2019-04-29T10:14:24.315Z,37.36
2019-04-29T10:16:56.290Z,36.92
2019-04-29T10:19:23.269Z,36.94
2019-04-29T10:21:54.516Z,35.53
2019-04-29T10:27:11.581Z,36.57
2019-04-29T10:29:40.896Z,36.15
2019-04-29T10:32:10.010Z,36.49
2019-04-29T10:34:43.043Z,37.10
2019-04-29T10:37:07.913Z,36.42
2019-04-29T10:39:36.816Z,36.35
2019-04-29T10:42:08.359Z,36.36
2019-04-29T10:44:37.514Z,36.18
2019-04-29T10:47:22.158Z,35.70
2019-04-29T10:49:51.574Z,36.87
2019-04-29T10:52:21.203Z,37.48
2019-04-29T10:55:06.530Z,36.99
2019-04-29T10:57:49.783Z,36.32
2019-04-29T11:00:17.008Z,36.16
2019-04-29T11:02:49.414Z,36.25
2019-04-29T11:05:18.977Z,36.62
2019-04-29T11:07:46.693Z,36.27
2019-04-29T11:10:24.880Z,35.69
2019-04-29T11:12:54.601Z,35.90
2019-04-29T11:15:17.356Z,35.77
2019-04-29T11:17:46.428Z,36.47
2019-04-29T11:20:16.035Z,35.73
2019-04-29T11:22:47.662Z,35.26
2019-04-29T11:25:18.446Z,35.64
2019-04-29T11:27:45.422Z,36.00
2019-04-29T11:30:14.545Z,36.24
2019-04-29T11:32:47.310Z,36.60
2019-04-29T11:35:17.946Z,36.01
2019-04-29T11:37:49.992Z,35.74
2019-04-29T11:40:20.612Z,35.74
2019-04-29T11:42:52.689Z,36.37
2019-04-29T11:45:23.150Z,36.16
2019-04-29T11:47:52.442Z,37.17
2019-04-29T11:50:21.590Z,36.88
2019-04-29T11:52:48.759Z,37.31
2019-04-29T11:55:21.789Z,37.71
2019-04-29T11:57:51.374Z,36.05
2019-04-29T12:00:19.166Z,36.38
2019-04-29T12:02:47.124Z,36.41
2019-04-29T12:05:17.810Z,36.32
2019-04-29T12:07:44.685Z,36.42
2019-04-29T12:10:12.982Z,36.96
2019-04-29T12:12:43.663Z,36.34
2019-04-29T12:15:15.411Z,36.11
2019-04-29T12:17:42.823Z,35.36
2019-04-29T12:20:10.029Z,36.04
2019-04-29T12:25:27.539Z,37.04
2019-04-29T12:28:01.513Z,36.71
2019-04-29T12:30:23.456Z,36.55
2019-04-29T12:32:56.771Z,36.07
2019-04-29T12:35:23.421Z,35.91
2019-04-29T12:40:39.495Z,35.87
2019-04-29T12:43:06.510Z,37.13
2019-04-29T12:45:34.288Z,36.42
2019-04-29T12:48:02.642Z,37.06
2019-04-29T12:50:29.649Z,35.65
2019-04-29T12:52:57.683Z,36.83
2019-04-29T12:55:43.487Z,35.85
2019-04-29T12:57:53.604Z,35.86
2019-04-29T13:00:20.579Z,36.03
2019-04-29T13:02:47.368Z,36.43
2019-04-29T13:05:16.606Z,36.07
2019-04-29T13:07:43.793Z,36.38
2019-04-29T13:10:13.596Z,36.01
2019-04-29T13:12:44.040Z,35.73
2019-04-29T13:15:12.681Z,36.19
2019-04-29T13:17:37.374Z,35.65
2019-04-29T13:20:07.210Z,36.66
2019-04-29T13:22:33.068Z,35.58
2019-04-29T13:24:59.994Z,35.76
2019-04-29T13:27:28.527Z,35.84
2019-04-29T13:29:55.606Z,36.00
2019-04-29T13:32:25.354Z,35.03
2019-04-29T13:34:52.552Z,35.69
2019-04-29T13:37:20.021Z,36.12
2019-04-29T13:39:48.423Z,34.54
2019-04-29T13:42:15.958Z,35.37
2019-04-29T13:45:04.713Z,36.12
2019-04-29T13:47:12.880Z,36.00
2019-04-29T13:49:40.329Z,36.02
2019-04-29T13:52:42.269Z,36.35
2019-04-29T13:54:46.759Z,36.69
2019-04-29T13:57:15.959Z,36.40
2019-04-29T13:59:49.150Z,36.20
2019-04-29T14:07:57.902Z,36.44
2019-04-29T14:10:24.710Z,35.98
2019-04-29T14:13:05.161Z,36.04
2019-04-29T14:15:20.666Z,35.79
2019-04-29T14:17:47.574Z,35.48
2019-04-29T14:20:15.543Z,35.68
2019-04-29T14:22:43.257Z,37.03
2019-04-29T14:33:38.858Z,36.01
2019-04-29T14:36:05.456Z,35.70
2019-04-29T14:38:35.946Z,35.76
2019-04-29T14:41:01.450Z,35.87
2019-04-29T14:43:31.853Z,35.37
2019-04-29T14:45:56.458Z,36.22
2019-04-29T14:48:23.323Z,35.41
2019-04-29T14:50:54.055Z,36.34
2019-04-29T14:53:19.555Z,35.71
2019-04-29T14:55:47.154Z,35.89
2019-04-29T14:58:14.096Z,35.84
2019-04-29T15:00:41.843Z,36.15
2019-04-29T15:03:08.866Z,35.40
2019-04-29T15:05:36.353Z,35.87
2019-04-29T15:08:03.251Z,36.21
2019-04-29T15:10:31.135Z,36.22
2019-04-29T15:13:18.289Z,35.55
2019-04-29T15:15:34.205Z,36.34
2019-04-29T15:17:59.698Z,36.96
2019-04-29T15:20:30.271Z,35.45
2019-04-29T15:22:57.740Z,35.83
2019-04-29T15:25:25.810Z,35.56
2019-04-29T15:27:52.583Z,35.66
2019-04-29T15:30:23.285Z,35.27
2019-04-29T15:32:53.199Z,35.78
2019-04-29T15:35:19.779Z,35.80
2019-04-29T15:37:47.651Z,36.01
2019-04-29T15:40:14.241Z,35.03
2019-04-29T15:42:43.227Z,36.01
2019-04-29T15:45:09.470Z,35.71
2019-04-29T15:47:36.116Z,35.43
2019-04-29T15:50:18.134Z,35.75
2019-04-29T15:52:33.226Z,35.12
2019-04-29T15:54:59.850Z,34.58
2019-04-29T15:57:26.817Z,35.62
2019-04-29T15:59:58.921Z,35.83
2019-04-29T16:02:22.605Z,35.28
2019-04-29T16:04:49.524Z,35.22
2019-04-29T16:07:17.655Z,35.26
2019-04-29T16:09:51.904Z,35.32
2019-04-29T16:12:15.386Z,34.98
2019-04-29T16:14:41.718Z,35.37
2019-04-29T16:17:09.773Z,35.32
2019-04-29T16:19:36.417Z,36.44
2019-04-29T16:22:03.005Z,35.77
2019-04-29T16:24:37.637Z,35.93
2019-04-29T16:27:01.121Z,35.75
2019-04-29T16:29:26.508Z,35.49
2019-04-29T16:31:54.948Z,35.64
2019-04-29T16:34:21.579Z,36.40
2019-04-29T16:36:50.042Z,36.57
2019-04-29T16:39:17.082Z,36.08
2019-04-29T16:41:51.132Z,36.28
2019-04-29T16:44:34.255Z,36.61
2019-04-29T16:46:43.187Z,36.32
2019-04-29T16:49:11.103Z,36.03
2019-04-29T16:51:37.791Z,35.91
2019-04-29T16:54:04.412Z,36.10
2019-04-29T16:56:31.565Z,36.17
2019-04-29T16:58:58.186Z,35.83
2019-04-29T17:01:27.022Z,36.83
2019-04-29T17:03:54.795Z,36.66
2019-04-29T17:06:22.387Z,36.72
2019-04-29T17:08:50.582Z,37.43
2019-04-29T17:11:19.391Z,37.47
2019-04-29T17:13:48.936Z,37.78
2019-04-29T17:16:15.909Z,37.62
2019-04-29T17:18:42.866Z,37.43
2019-04-29T17:21:09.905Z,37.31
2019-04-29T17:23:37.141Z,37.42
2019-04-29T17:26:03.743Z,37.79
2019-04-29T17:28:31.339Z,37.40
2019-04-29T17:30:58.689Z,36.98
2019-04-29T17:33:28.411Z,37.63
2019-04-29T17:35:55.787Z,37.19
2019-04-29T17:38:23.365Z,38.15
2019-04-29T17:40:51.026Z,37.00
2019-04-29T17:43:18.306Z,37.07
2019-04-29T17:59:49.073Z,37.72
2019-04-29T18:02:21.686Z,38.30
2019-04-29T18:04:45.645Z,38.50
2019-04-29T18:07:12.591Z,38.97
2019-04-29T18:09:39.782Z,38.69
2019-04-29T18:12:06.402Z,36.91
2019-04-29T18:14:40.435Z,37.56
2019-04-29T18:17:02.519Z,38.08
2019-04-29T18:19:30.847Z,38.92
2019-04-29T18:21:57.449Z,38.92
2019-04-29T18:24:25.402Z,37.85
2019-04-29T18:26:52.900Z,37.68
2019-04-29T18:29:19.598Z,38.60
2019-04-29T18:31:46.658Z,38.58
2019-04-29T18:34:15.189Z,38.28
2019-04-29T18:36:41.973Z,37.17
2019-04-29T18:39:09.166Z,37.47
2019-04-29T18:41:36.033Z,37.50
2019-04-29T18:44:04.932Z,37.33
2019-04-29T18:46:31.271Z,38.28
2019-04-29T18:49:03.013Z,38.44
2019-04-29T18:51:28.884Z,38.22
2019-04-29T18:53:58.579Z,37.63
2019-04-29T18:59:13.207Z,37.50
2019-04-29T19:01:41.277Z,38.71
2019-04-29T19:04:13.767Z,37.43
2019-04-29T19:06:40.606Z,38.04
2019-04-29T19:09:17.953Z,38.35
2019-04-29T19:11:38.459Z,36.91
2019-04-29T19:14:08.713Z,37.64
2019-04-29T19:16:36.286Z,38.01
2019-04-29T19:19:05.135Z,39.63
2019-04-29T19:21:34.307Z,40.09
2019-04-29T19:24:01.329Z,39.51
2019-04-29T19:26:28.199Z,39.71
2019-04-29T19:28:56.814Z,39.50
2019-04-29T19:31:25.170Z,39.17
2019-04-29T19:33:52.226Z,38.68
2019-04-29T19:36:21.798Z,39.08
2019-04-29T19:38:47.845Z,40.09
2019-04-29T19:41:16.285Z,39.83
2019-04-29T19:43:43.025Z,39.40
2019-04-29T19:46:36.848Z,40.94
2019-04-29T19:49:07.432Z,39.59
2019-04-29T19:51:29.814Z,39.18
2019-04-29T19:54:10.471Z,39.96
2019-04-29T19:56:49.408Z,40.42
2019-04-29T19:59:18.674Z,39.65
2019-04-29T20:02:01.695Z,40.86
2019-04-29T20:04:23.186Z,42.05
2019-04-29T20:06:56.099Z,42.41
2019-04-29T20:09:24.336Z,41.72
2019-04-29T20:11:55.852Z,40.88
2019-04-29T20:14:27.400Z,41.16
2019-04-29T20:16:57.337Z,40.86
2019-04-29T20:19:22.189Z,41.49
2019-04-29T20:21:51.145Z,40.96
2019-04-29T20:24:22.828Z,41.36
2019-04-29T20:26:47.490Z,42.41
2019-04-29T20:29:15.920Z,43.12
2019-04-29T20:31:49.134Z,42.70
2019-04-29T20:34:11.453Z,43.57
2019-04-29T20:36:42.668Z,43.70
2019-04-29T20:39:15.095Z,42.22
2019-04-29T20:41:42.021Z,42.10
2019-04-29T20:44:09.639Z,41.32
2019-04-29T20:46:45.435Z,40.14
2019-04-29T20:49:05.816Z,40.48
2019-04-29T20:51:48.998Z,40.50
2019-04-29T20:54:01.401Z,40.88
2019-04-29T20:56:29.873Z,40.83
2019-04-29T20:58:56.691Z,40.48
2019-04-29T21:01:25.346Z,39.74
2019-04-29T21:03:56.508Z,40.30
2019-04-29T21:06:22.789Z,40.29
2019-04-29T21:08:50.943Z,39.86
2019-04-29T21:11:21.011Z,39.60
2019-04-29T21:13:48.846Z,39.93
2019-04-29T21:16:15.188Z,40.98
2019-04-29T21:18:45.527Z,39.46
2019-04-29T21:21:10.650Z,39.52
2019-04-29T21:23:37.446Z,39.08
2019-04-29T21:26:05.378Z,40.19
2019-04-29T21:28:38.224Z,39.60
2019-04-29T21:31:01.157Z,39.76
2019-04-29T21:33:27.817Z,39.20
2019-04-29T21:35:57.800Z,38.87
2019-04-29T21:38:23.485Z,38.91
2019-04-29T21:40:50.421Z,39.03
2019-04-29T21:43:17.769Z,39.63
2019-04-29T21:45:48.259Z,38.67
2019-04-29T21:48:13.097Z,38.98
2019-04-29T21:50:40.093Z,39.42
2019-04-29T21:53:07.036Z,39.97
2019-04-29T21:55:35.731Z,39.58
2019-04-29T21:58:02.541Z,40.21
2019-04-29T22:00:29.417Z,40.06
2019-04-29T22:03:00.554Z,39.32
2019-04-29T22:05:27.307Z,38.75
2019-04-29T22:07:54.239Z,38.68
2019-04-29T22:10:25.148Z,38.44
2019-04-29T22:12:50.975Z,38.85
2019-04-29T22:15:32.679Z,39.22
2019-04-29T22:18:01.309Z,38.58
2019-04-29T22:43:25.339Z,39.44
2019-04-29T22:45:52.548Z,38.69
2019-04-29T22:48:20.168Z,38.84
2019-04-29T22:50:47.424Z,38.59
2019-04-29T22:53:14.796Z,38.22
2019-04-29T22:55:41.529Z,38.35
2019-04-29T22:58:09.755Z,38.51
2019-04-29T23:00:37.063Z,39.22
2019-04-29T23:03:03.935Z,38.45
2019-04-29T23:05:31.033Z,38.74
2019-04-29T23:08:00.318Z,38.90
2019-04-29T23:10:27.892Z,37.95
2019-04-29T23:15:41.178Z,38.95
2019-04-29T23:18:07.775Z,38.14
2019-04-29T23:20:35.278Z,38.74
2019-04-29T23:23:02.451Z,38.64
2019-04-29T23:25:29.960Z,38.65
2019-04-29T23:27:56.659Z,38.58
2019-04-29T23:30:23.293Z,38.64
2019-04-29T23:32:50.186Z,38.72
2019-04-29T23:35:16.840Z,38.82
2019-04-29T23:37:45.747Z,38.97
2019-04-29T23:40:12.447Z,38.59
2019-04-29T23:42:39.377Z,38.24
